sensor_id;sensor_type;location;lat;lon;timestamp;P1;durP1;ratioP1;P2;durP2;ratioP2
77362;SDS011;66428;47.322;9.432;2023-05-16T00:02:03;2.22;;;1.50;;
77362;SDS011;66428;47.322;9.432;2023-05-16T00:04:31;2.70;;;1.73;;
77362;SDS011;66428;47.322;9.432;2023-05-16T00:06:58;2.67;;;2.10;;
77362;SDS011;66428;47.322;9.432;2023-05-16T00:09:25;3.40;;;2.08;;
77362;SDS011;66428;47.322;9.432;2023-05-16T00:11:56;2.58;;;2.17;;
77362;SDS011;66428;47.322;9.432;2023-05-16T00:14:27;2.85;;;2.00;;
77362;SDS011;66428;47.322;9.432;2023-05-16T00:16:57;2.75;;;2.05;;
77362;SDS011;66428;47.322;9.432;2023-05-16T00:19:24;3.45;;;1.90;;
77362;SDS011;66428;47.322;9.432;2023-05-16T00:21:51;3.03;;;2.05;;
77362;SDS011;66428;47.322;9.432;2023-05-16T00:24:20;3.28;;;2.08;;
77362;SDS011;66428;47.322;9.432;2023-05-16T00:26:49;3.22;;;2.55;;
77362;SDS011;66428;47.322;9.432;2023-05-16T00:29:15;4.95;;;2.55;;
77362;SDS011;66428;47.322;9.432;2023-05-16T00:31:44;4.10;;;2.10;;
77362;SDS011;66428;47.322;9.432;2023-05-16T00:34:11;3.30;;;2.17;;
77362;SDS011;66428;47.322;9.432;2023-05-16T00:36:37;2.92;;;2.20;;
77362;SDS011;66428;47.322;9.432;2023-05-16T00:39:04;3.42;;;2.03;;
77362;SDS011;66428;47.322;9.432;2023-05-16T00:41:33;3.67;;;2.38;;
77362;SDS011;66428;47.322;9.432;2023-05-16T00:44:00;3.42;;;2.03;;
77362;SDS011;66428;47.322;9.432;2023-05-16T00:46:29;2.72;;;2.00;;
77362;SDS011;66428;47.322;9.432;2023-05-16T00:48:55;3.10;;;2.42;;
77362;SDS011;66428;47.322;9.432;2023-05-16T00:51:22;2.58;;;1.73;;
77362;SDS011;66428;47.322;9.432;2023-05-16T00:53:53;3.75;;;2.22;;
77362;SDS011;66428;47.322;9.432;2023-05-16T00:56:28;2.17;;;1.50;;
77362;SDS011;66428;47.322;9.432;2023-05-16T00:58:55;2.45;;;1.60;;
77362;SDS011;66428;47.322;9.432;2023-05-16T01:01:24;3.15;;;1.80;;
77362;SDS011;66428;47.322;9.432;2023-05-16T01:03:52;2.75;;;1.90;;
77362;SDS011;66428;47.322;9.432;2023-05-16T01:06:19;2.90;;;1.92;;
77362;SDS011;66428;47.322;9.432;2023-05-16T01:08:48;3.45;;;2.17;;
77362;SDS011;66428;47.322;9.432;2023-05-16T01:16:47;3.58;;;2.33;;
77362;SDS011;66428;47.322;9.432;2023-05-16T01:21:48;2.53;;;1.98;;
77362;SDS011;66428;47.322;9.432;2023-05-16T01:26:51;4.03;;;2.17;;
77362;SDS011;66428;47.322;9.432;2023-05-16T01:29:20;3.45;;;2.53;;
77362;SDS011;66428;47.322;9.432;2023-05-16T01:31:52;8.68;;;2.65;;
77362;SDS011;66428;47.322;9.432;2023-05-16T01:34:21;3.22;;;2.47;;
77362;SDS011;66428;47.322;9.432;2023-05-16T01:37:11;3.72;;;2.08;;
77362;SDS011;66428;47.322;9.432;2023-05-16T01:42:13;2.10;;;1.60;;
77362;SDS011;66428;47.322;9.432;2023-05-16T01:44:42;3.03;;;1.98;;
77362;SDS011;66428;47.322;9.432;2023-05-16T01:47:11;2.20;;;1.48;;
77362;SDS011;66428;47.322;9.432;2023-05-16T01:49:40;2.75;;;1.92;;
77362;SDS011;66428;47.322;9.432;2023-05-16T01:52:14;2.72;;;1.85;;
77362;SDS011;66428;47.322;9.432;2023-05-16T01:54:42;2.50;;;1.63;;
77362;SDS011;66428;47.322;9.432;2023-05-16T01:57:12;3.05;;;1.80;;
77362;SDS011;66428;47.322;9.432;2023-05-16T01:59:44;2.22;;;1.63;;
77362;SDS011;66428;47.322;9.432;2023-05-16T02:02:16;2.50;;;1.88;;
77362;SDS011;66428;47.322;9.432;2023-05-16T02:04:45;3.17;;;1.80;;
77362;SDS011;66428;47.322;9.432;2023-05-16T02:07:14;3.70;;;2.15;;
77362;SDS011;66428;47.322;9.432;2023-05-16T02:09:40;2.75;;;1.83;;
77362;SDS011;66428;47.322;9.432;2023-05-16T02:12:07;3.50;;;1.80;;
77362;SDS011;66428;47.322;9.432;2023-05-16T02:14:38;4.07;;;2.10;;
77362;SDS011;66428;47.322;9.432;2023-05-16T02:17:09;3.90;;;2.20;;
77362;SDS011;66428;47.322;9.432;2023-05-16T02:19:36;2.92;;;1.83;;
77362;SDS011;66428;47.322;9.432;2023-05-16T02:22:03;2.63;;;1.90;;
77362;SDS011;66428;47.322;9.432;2023-05-16T02:24:31;2.50;;;1.98;;
77362;SDS011;66428;47.322;9.432;2023-05-16T02:26:59;3.22;;;1.65;;
77362;SDS011;66428;47.322;9.432;2023-05-16T02:29:25;2.70;;;1.83;;
77362;SDS011;66428;47.322;9.432;2023-05-16T02:31:56;2.70;;;1.85;;
77362;SDS011;66428;47.322;9.432;2023-05-16T02:34:23;2.55;;;1.88;;
77362;SDS011;66428;47.322;9.432;2023-05-16T02:36:52;3.08;;;1.83;;
77362;SDS011;66428;47.322;9.432;2023-05-16T02:39:23;2.75;;;1.80;;
77362;SDS011;66428;47.322;9.432;2023-05-16T02:41:49;4.30;;;1.90;;
77362;SDS011;66428;47.322;9.432;2023-05-16T02:44:21;2.20;;;1.60;;
77362;SDS011;66428;47.322;9.432;2023-05-16T02:46:47;2.75;;;1.85;;
77362;SDS011;66428;47.322;9.432;2023-05-16T02:49:19;3.95;;;1.65;;
77362;SDS011;66428;47.322;9.432;2023-05-16T02:51:48;2.40;;;1.48;;
77362;SDS011;66428;47.322;9.432;2023-05-16T02:54:20;2.45;;;1.70;;
77362;SDS011;66428;47.322;9.432;2023-05-16T02:56:51;2.60;;;1.77;;
77362;SDS011;66428;47.322;9.432;2023-05-16T02:59:20;2.45;;;1.60;;
77362;SDS011;66428;47.322;9.432;2023-05-16T03:01:49;3.08;;;1.70;;
77362;SDS011;66428;47.322;9.432;2023-05-16T03:04:19;2.63;;;1.75;;
77362;SDS011;66428;47.322;9.432;2023-05-16T03:06:47;2.30;;;2.00;;
77362;SDS011;66428;47.322;9.432;2023-05-16T03:09:16;2.70;;;1.60;;
77362;SDS011;66428;47.322;9.432;2023-05-16T03:11:45;2.60;;;1.52;;
77362;SDS011;66428;47.322;9.432;2023-05-16T03:14:12;2.08;;;1.38;;
77362;SDS011;66428;47.322;9.432;2023-05-16T03:16:38;2.25;;;1.63;;
77362;SDS011;66428;47.322;9.432;2023-05-16T03:19:09;2.20;;;1.63;;
77362;SDS011;66428;47.322;9.432;2023-05-16T03:21:36;2.78;;;1.70;;
77362;SDS011;66428;47.322;9.432;2023-05-16T03:24:02;2.75;;;1.55;;
77362;SDS011;66428;47.322;9.432;2023-05-16T03:26:31;2.38;;;1.70;;
77362;SDS011;66428;47.322;9.432;2023-05-16T03:29:00;3.05;;;1.70;;
77362;SDS011;66428;47.322;9.432;2023-05-16T03:31:27;2.30;;;1.63;;
77362;SDS011;66428;47.322;9.432;2023-05-16T03:33:56;2.67;;;1.90;;
77362;SDS011;66428;47.322;9.432;2023-05-16T03:36:28;2.72;;;1.63;;
77362;SDS011;66428;47.322;9.432;2023-05-16T03:38:55;3.30;;;2.10;;
77362;SDS011;66428;47.322;9.432;2023-05-16T03:41:21;2.95;;;2.30;;
77362;SDS011;66428;47.322;9.432;2023-05-16T03:43:50;2.10;;;1.63;;
77362;SDS011;66428;47.322;9.432;2023-05-16T03:46:17;2.80;;;1.80;;
77362;SDS011;66428;47.322;9.432;2023-05-16T03:48:46;2.70;;;2.03;;
77362;SDS011;66428;47.322;9.432;2023-05-16T03:51:18;3.17;;;1.90;;
77362;SDS011;66428;47.322;9.432;2023-05-16T03:53:47;3.38;;;2.13;;
77362;SDS011;66428;47.322;9.432;2023-05-16T03:56:14;2.97;;;1.92;;
77362;SDS011;66428;47.322;9.432;2023-05-16T03:58:45;4.07;;;2.10;;
77362;SDS011;66428;47.322;9.432;2023-05-16T04:01:12;2.75;;;2.03;;
77362;SDS011;66428;47.322;9.432;2023-05-16T04:03:38;3.03;;;2.00;;
77362;SDS011;66428;47.322;9.432;2023-05-16T04:06:05;3.33;;;2.50;;
77362;SDS011;66428;47.322;9.432;2023-05-16T04:08:35;3.47;;;2.20;;
77362;SDS011;66428;47.322;9.432;2023-05-16T04:11:03;3.33;;;2.40;;
77362;SDS011;66428;47.322;9.432;2023-05-16T04:13:33;3.20;;;2.28;;
77362;SDS011;66428;47.322;9.432;2023-05-16T04:16:02;3.08;;;2.10;;
77362;SDS011;66428;47.322;9.432;2023-05-16T04:18:33;2.70;;;1.90;;
77362;SDS011;66428;47.322;9.432;2023-05-16T04:21:00;3.00;;;2.00;;
77362;SDS011;66428;47.322;9.432;2023-05-16T04:23:32;2.70;;;1.98;;
77362;SDS011;66428;47.322;9.432;2023-05-16T04:26:00;2.65;;;1.80;;
77362;SDS011;66428;47.322;9.432;2023-05-16T04:28:29;3.15;;;1.75;;
77362;SDS011;66428;47.322;9.432;2023-05-16T04:30:56;4.43;;;1.85;;
77362;SDS011;66428;47.322;9.432;2023-05-16T04:33:27;2.50;;;1.98;;
77362;SDS011;66428;47.322;9.432;2023-05-16T04:35:58;3.22;;;1.92;;
77362;SDS011;66428;47.322;9.432;2023-05-16T04:38:25;2.55;;;1.67;;
77362;SDS011;66428;47.322;9.432;2023-05-16T04:40:54;2.47;;;1.75;;
77362;SDS011;66428;47.322;9.432;2023-05-16T04:43:20;2.20;;;1.50;;
77362;SDS011;66428;47.322;9.432;2023-05-16T04:45:47;2.17;;;1.48;;
77362;SDS011;66428;47.322;9.432;2023-05-16T04:48:16;3.10;;;2.00;;
77362;SDS011;66428;47.322;9.432;2023-05-16T04:50:42;2.45;;;1.50;;
77362;SDS011;66428;47.322;9.432;2023-05-16T04:53:11;2.45;;;1.50;;
77362;SDS011;66428;47.322;9.432;2023-05-16T04:55:42;2.63;;;1.70;;
77362;SDS011;66428;47.322;9.432;2023-05-16T04:58:09;3.03;;;1.80;;
77362;SDS011;66428;47.322;9.432;2023-05-16T05:00:35;2.03;;;1.52;;
77362;SDS011;66428;47.322;9.432;2023-05-16T05:03:02;3.00;;;1.85;;
77362;SDS011;66428;47.322;9.432;2023-05-16T05:05:29;2.20;;;1.70;;
77362;SDS011;66428;47.322;9.432;2023-05-16T05:07:57;2.50;;;1.58;;
77362;SDS011;66428;47.322;9.432;2023-05-16T05:10:29;3.03;;;1.95;;
77362;SDS011;66428;47.322;9.432;2023-05-16T05:12:58;2.80;;;1.77;;
77362;SDS011;66428;47.322;9.432;2023-05-16T05:15:27;3.58;;;2.00;;
77362;SDS011;66428;47.322;9.432;2023-05-16T05:17:54;2.92;;;2.00;;
77362;SDS011;66428;47.322;9.432;2023-05-16T05:20:23;2.63;;;1.85;;
77362;SDS011;66428;47.322;9.432;2023-05-16T05:22:52;3.05;;;2.00;;
77362;SDS011;66428;47.322;9.432;2023-05-16T05:25:21;2.78;;;1.90;;
77362;SDS011;66428;47.322;9.432;2023-05-16T05:27:48;2.90;;;2.10;;
77362;SDS011;66428;47.322;9.432;2023-05-16T05:30:17;3.05;;;2.25;;
77362;SDS011;66428;47.322;9.432;2023-05-16T05:32:43;3.08;;;2.38;;
77362;SDS011;66428;47.322;9.432;2023-05-16T05:35:12;3.13;;;2.10;;
77362;SDS011;66428;47.322;9.432;2023-05-16T05:37:41;3.38;;;2.05;;
77362;SDS011;66428;47.322;9.432;2023-05-16T05:40:11;4.00;;;3.10;;
77362;SDS011;66428;47.322;9.432;2023-05-16T05:42:40;4.32;;;3.05;;
77362;SDS011;66428;47.322;9.432;2023-05-16T05:45:12;4.22;;;2.80;;
77362;SDS011;66428;47.322;9.432;2023-05-16T05:47:41;3.10;;;2.35;;
77362;SDS011;66428;47.322;9.432;2023-05-16T05:50:08;3.80;;;2.50;;
77362;SDS011;66428;47.322;9.432;2023-05-16T05:52:40;2.85;;;2.05;;
77362;SDS011;66428;47.322;9.432;2023-05-16T05:55:09;2.47;;;1.95;;
77362;SDS011;66428;47.322;9.432;2023-05-16T05:57:40;2.88;;;2.17;;
77362;SDS011;66428;47.322;9.432;2023-05-16T06:00:07;2.88;;;1.77;;
77362;SDS011;66428;47.322;9.432;2023-05-16T06:02:39;2.38;;;1.80;;
77362;SDS011;66428;47.322;9.432;2023-05-16T06:05:08;2.83;;;1.98;;
77362;SDS011;66428;47.322;9.432;2023-05-16T06:07:35;2.88;;;2.08;;
77362;SDS011;66428;47.322;9.432;2023-05-16T06:10:01;2.55;;;2.05;;
77362;SDS011;66428;47.322;9.432;2023-05-16T06:12:31;2.75;;;2.03;;
77362;SDS011;66428;47.322;9.432;2023-05-16T06:14:57;2.65;;;2.03;;
77362;SDS011;66428;47.322;9.432;2023-05-16T06:17:29;2.72;;;2.03;;
77362;SDS011;66428;47.322;9.432;2023-05-16T06:19:57;2.95;;;2.05;;
77362;SDS011;66428;47.322;9.432;2023-05-16T06:22:26;2.45;;;1.73;;
77362;SDS011;66428;47.322;9.432;2023-05-16T06:24:57;2.38;;;1.50;;
77362;SDS011;66428;47.322;9.432;2023-05-16T06:27:24;2.75;;;1.73;;
77362;SDS011;66428;47.322;9.432;2023-05-16T06:29:56;3.53;;;2.38;;
77362;SDS011;66428;47.322;9.432;2023-05-16T06:32:25;2.95;;;2.13;;
77362;SDS011;66428;47.322;9.432;2023-05-16T06:34:59;3.75;;;2.60;;
77362;SDS011;66428;47.322;9.432;2023-05-16T06:37:26;5.38;;;3.70;;
77362;SDS011;66428;47.322;9.432;2023-05-16T06:39:53;3.75;;;3.03;;
77362;SDS011;66428;47.322;9.432;2023-05-16T06:42:24;4.13;;;3.10;;
77362;SDS011;66428;47.322;9.432;2023-05-16T06:44:53;2.75;;;2.20;;
77362;SDS011;66428;47.322;9.432;2023-05-16T06:47:22;4.63;;;2.53;;
77362;SDS011;66428;47.322;9.432;2023-05-16T06:49:51;2.58;;;1.98;;
77362;SDS011;66428;47.322;9.432;2023-05-16T06:52:18;2.70;;;1.95;;
77362;SDS011;66428;47.322;9.432;2023-05-16T06:54:44;3.13;;;2.28;;
77362;SDS011;66428;47.322;9.432;2023-05-16T06:57:16;4.65;;;2.95;;
77362;SDS011;66428;47.322;9.432;2023-05-16T06:59:43;4.65;;;2.92;;
77362;SDS011;66428;47.322;9.432;2023-05-16T07:02:12;4.63;;;2.85;;
77362;SDS011;66428;47.322;9.432;2023-05-16T07:04:38;3.28;;;2.50;;
77362;SDS011;66428;47.322;9.432;2023-05-16T07:07:07;3.78;;;2.92;;
77362;SDS011;66428;47.322;9.432;2023-05-16T07:09:39;4.63;;;3.58;;
77362;SDS011;66428;47.322;9.432;2023-05-16T07:12:08;6.15;;;4.82;;
77362;SDS011;66428;47.322;9.432;2023-05-16T07:14:40;6.85;;;5.57;;
77362;SDS011;66428;47.322;9.432;2023-05-16T07:17:09;8.18;;;6.40;;
77362;SDS011;66428;47.322;9.432;2023-05-16T07:19:41;9.50;;;6.90;;
77362;SDS011;66428;47.322;9.432;2023-05-16T07:22:07;9.90;;;6.72;;
77362;SDS011;66428;47.322;9.432;2023-05-16T07:24:34;8.20;;;6.18;;
77362;SDS011;66428;47.322;9.432;2023-05-16T07:27:05;9.07;;;6.25;;
77362;SDS011;66428;47.322;9.432;2023-05-16T07:29:37;9.15;;;6.50;;
77362;SDS011;66428;47.322;9.432;2023-05-16T07:32:08;9.27;;;6.93;;
77362;SDS011;66428;47.322;9.432;2023-05-16T07:34:42;10.25;;;7.60;;
77362;SDS011;66428;47.322;9.432;2023-05-16T07:37:09;10.23;;;7.97;;
77362;SDS011;66428;47.322;9.432;2023-05-16T07:39:38;10.00;;;7.47;;
77362;SDS011;66428;47.322;9.432;2023-05-16T07:42:13;9.48;;;7.53;;
77362;SDS011;66428;47.322;9.432;2023-05-16T07:44:44;10.27;;;7.05;;
77362;SDS011;66428;47.322;9.432;2023-05-16T07:47:18;10.27;;;7.82;;
77362;SDS011;66428;47.322;9.432;2023-05-16T07:49:47;13.32;;;9.77;;
77362;SDS011;66428;47.322;9.432;2023-05-16T07:52:14;10.00;;;8.25;;
77362;SDS011;66428;47.322;9.432;2023-05-16T07:54:44;11.25;;;9.40;;
77362;SDS011;66428;47.322;9.432;2023-05-16T07:57:18;13.48;;;10.13;;
77362;SDS011;66428;47.322;9.432;2023-05-16T07:59:47;13.32;;;10.10;;
77362;SDS011;66428;47.322;9.432;2023-05-16T08:02:13;15.70;;;11.10;;
77362;SDS011;66428;47.322;9.432;2023-05-16T08:04:41;13.82;;;10.77;;
77362;SDS011;66428;47.322;9.432;2023-05-16T08:07:11;14.27;;;11.05;;
77362;SDS011;66428;47.322;9.432;2023-05-16T08:09:37;15.00;;;11.02;;
77362;SDS011;66428;47.322;9.432;2023-05-16T08:12:04;14.50;;;11.00;;
77362;SDS011;66428;47.322;9.432;2023-05-16T08:14:31;15.35;;;11.07;;
77362;SDS011;66428;47.322;9.432;2023-05-16T08:16:58;15.73;;;9.90;;
77362;SDS011;66428;47.322;9.432;2023-05-16T08:19:27;16.13;;;11.40;;
77362;SDS011;66428;47.322;9.432;2023-05-16T08:21:57;17.70;;;12.95;;
77362;SDS011;66428;47.322;9.432;2023-05-16T08:24:29;15.63;;;12.20;;
77362;SDS011;66428;47.322;9.432;2023-05-16T08:26:58;15.75;;;11.15;;
77362;SDS011;66428;47.322;9.432;2023-05-16T08:31:55;16.58;;;11.35;;
77362;SDS011;66428;47.322;9.432;2023-05-16T08:34:24;17.40;;;11.90;;
77362;SDS011;66428;47.322;9.432;2023-05-16T08:36:56;19.67;;;13.38;;
77362;SDS011;66428;47.322;9.432;2023-05-16T08:39:25;19.98;;;14.02;;
77362;SDS011;66428;47.322;9.432;2023-05-16T08:41:55;22.55;;;14.48;;
77362;SDS011;66428;47.322;9.432;2023-05-16T08:44:22;20.98;;;14.63;;
77362;SDS011;66428;47.322;9.432;2023-05-16T08:46:51;18.75;;;13.70;;
77362;SDS011;66428;47.322;9.432;2023-05-16T08:49:18;20.80;;;14.20;;
77362;SDS011;66428;47.322;9.432;2023-05-16T08:51:49;19.88;;;14.60;;
77362;SDS011;66428;47.322;9.432;2023-05-16T08:54:17;20.50;;;13.95;;
77362;SDS011;66428;47.322;9.432;2023-05-16T08:56:46;19.20;;;14.52;;
77362;SDS011;66428;47.322;9.432;2023-05-16T08:59:18;21.55;;;14.85;;
77362;SDS011;66428;47.322;9.432;2023-05-16T09:01:44;20.52;;;13.85;;
77362;SDS011;66428;47.322;9.432;2023-05-16T09:04:12;20.50;;;14.00;;
77362;SDS011;66428;47.322;9.432;2023-05-16T09:06:42;20.02;;;13.82;;
77362;SDS011;66428;47.322;9.432;2023-05-16T09:09:11;22.13;;;14.73;;
77362;SDS011;66428;47.322;9.432;2023-05-16T09:11:40;22.42;;;14.38;;
77362;SDS011;66428;47.322;9.432;2023-05-16T09:14:07;22.50;;;14.95;;
77362;SDS011;66428;47.322;9.432;2023-05-16T09:16:36;18.88;;;13.35;;
77362;SDS011;66428;47.322;9.432;2023-05-16T09:19:03;21.73;;;14.48;;
77362;SDS011;66428;47.322;9.432;2023-05-16T09:21:31;21.17;;;14.82;;
77362;SDS011;66428;47.322;9.432;2023-05-16T09:24:07;21.15;;;14.88;;
77362;SDS011;66428;47.322;9.432;2023-05-16T09:26:38;20.13;;;13.32;;
77362;SDS011;66428;47.322;9.432;2023-05-16T09:29:11;20.00;;;14.13;;
77362;SDS011;66428;47.322;9.432;2023-05-16T09:31:38;21.27;;;14.15;;
77362;SDS011;66428;47.322;9.432;2023-05-16T09:34:07;20.40;;;14.48;;
77362;SDS011;66428;47.322;9.432;2023-05-16T09:36:34;18.98;;;13.02;;
77362;SDS011;66428;47.322;9.432;2023-05-16T09:39:02;18.80;;;14.10;;
77362;SDS011;66428;47.322;9.432;2023-05-16T09:41:31;21.55;;;13.93;;
77362;SDS011;66428;47.322;9.432;2023-05-16T09:44:02;21.63;;;14.20;;
77362;SDS011;66428;47.322;9.432;2023-05-16T09:46:32;19.70;;;14.20;;
77362;SDS011;66428;47.322;9.432;2023-05-16T09:49:01;18.95;;;13.68;;
77362;SDS011;66428;47.322;9.432;2023-05-16T09:51:28;17.90;;;12.82;;
77362;SDS011;66428;47.322;9.432;2023-05-16T09:53:57;16.40;;;12.95;;
77362;SDS011;66428;47.322;9.432;2023-05-16T09:56:24;19.42;;;12.85;;
77362;SDS011;66428;47.322;9.432;2023-05-16T09:58:50;17.92;;;12.98;;
77362;SDS011;66428;47.322;9.432;2023-05-16T10:01:17;18.80;;;13.85;;
77362;SDS011;66428;47.322;9.432;2023-05-16T10:03:43;22.13;;;15.43;;
77362;SDS011;66428;47.322;9.432;2023-05-16T10:06:13;18.38;;;13.27;;
77362;SDS011;66428;47.322;9.432;2023-05-16T10:08:42;17.52;;;14.15;;
77362;SDS011;66428;47.322;9.432;2023-05-16T10:11:09;20.05;;;13.55;;
77362;SDS011;66428;47.322;9.432;2023-05-16T10:13:38;19.40;;;13.27;;
77362;SDS011;66428;47.322;9.432;2023-05-16T10:16:10;18.55;;;13.43;;
77362;SDS011;66428;47.322;9.432;2023-05-16T10:18:40;18.95;;;12.80;;
77362;SDS011;66428;47.322;9.432;2023-05-16T10:21:12;17.73;;;13.15;;
77362;SDS011;66428;47.322;9.432;2023-05-16T10:23:43;17.33;;;12.23;;
77362;SDS011;66428;47.322;9.432;2023-05-16T10:26:15;16.98;;;13.00;;
77362;SDS011;66428;47.322;9.432;2023-05-16T10:28:46;16.92;;;12.43;;
77362;SDS011;66428;47.322;9.432;2023-05-16T10:31:14;18.85;;;14.20;;
77362;SDS011;66428;47.322;9.432;2023-05-16T10:33:43;18.45;;;13.18;;
77362;SDS011;66428;47.322;9.432;2023-05-16T10:36:10;14.88;;;11.65;;
77362;SDS011;66428;47.322;9.432;2023-05-16T10:38:44;16.02;;;12.27;;
77362;SDS011;66428;47.322;9.432;2023-05-16T10:41:16;15.52;;;12.95;;
77362;SDS011;66428;47.322;9.432;2023-05-16T10:43:46;18.33;;;12.82;;
77362;SDS011;66428;47.322;9.432;2023-05-16T10:46:26;14.05;;;11.65;;
77362;SDS011;66428;47.322;9.432;2023-05-16T10:48:53;16.35;;;11.88;;
77362;SDS011;66428;47.322;9.432;2023-05-16T10:51:37;16.55;;;11.93;;
77362;SDS011;66428;47.322;9.432;2023-05-16T10:54:07;17.58;;;12.05;;
77362;SDS011;66428;47.322;9.432;2023-05-16T10:56:38;15.00;;;12.48;;
77362;SDS011;66428;47.322;9.432;2023-05-16T10:59:21;14.80;;;11.43;;
77362;SDS011;66428;47.322;9.432;2023-05-16T11:01:52;16.15;;;12.05;;
77362;SDS011;66428;47.322;9.432;2023-05-16T11:04:22;15.80;;;11.57;;
77362;SDS011;66428;47.322;9.432;2023-05-16T11:06:53;16.70;;;12.55;;
77362;SDS011;66428;47.322;9.432;2023-05-16T11:09:25;16.42;;;12.15;;
77362;SDS011;66428;47.322;9.432;2023-05-16T11:11:55;15.55;;;11.73;;
77362;SDS011;66428;47.322;9.432;2023-05-16T11:22:08;16.77;;;12.43;;
77362;SDS011;66428;47.322;9.432;2023-05-16T11:24:35;20.52;;;13.82;;
77362;SDS011;66428;47.322;9.432;2023-05-16T11:27:05;9.65;;;6.50;;
77362;SDS011;66428;47.322;9.432;2023-05-16T11:29:34;8.10;;;5.63;;
77362;SDS011;66428;47.322;9.432;2023-05-16T11:32:03;8.27;;;6.30;;
77362;SDS011;66428;47.322;9.432;2023-05-16T11:34:34;7.15;;;5.25;;
77362;SDS011;66428;47.322;9.432;2023-05-16T11:37:05;6.38;;;4.78;;
77362;SDS011;66428;47.322;9.432;2023-05-16T11:39:34;5.07;;;3.80;;
77362;SDS011;66428;47.322;9.432;2023-05-16T11:42:06;4.82;;;3.75;;
77362;SDS011;66428;47.322;9.432;2023-05-16T11:44:32;5.63;;;3.92;;
77362;SDS011;66428;47.322;9.432;2023-05-16T11:47:01;5.35;;;4.10;;
77362;SDS011;66428;47.322;9.432;2023-05-16T11:49:29;4.78;;;4.10;;
77362;SDS011;66428;47.322;9.432;2023-05-16T11:51:58;6.82;;;5.10;;
77362;SDS011;66428;47.322;9.432;2023-05-16T11:54:30;6.78;;;4.25;;
77362;SDS011;66428;47.322;9.432;2023-05-16T11:56:57;6.15;;;4.13;;
77362;SDS011;66428;47.322;9.432;2023-05-16T11:59:26;5.43;;;4.13;;
77362;SDS011;66428;47.322;9.432;2023-05-16T12:01:53;5.13;;;4.43;;
77362;SDS011;66428;47.322;9.432;2023-05-16T12:04:19;5.10;;;3.83;;
77362;SDS011;66428;47.322;9.432;2023-05-16T12:06:56;6.07;;;4.78;;
77362;SDS011;66428;47.322;9.432;2023-05-16T12:09:25;6.05;;;4.78;;
77362;SDS011;66428;47.322;9.432;2023-05-16T12:11:54;5.70;;;5.10;;
77362;SDS011;66428;47.322;9.432;2023-05-16T12:14:21;15.73;;;5.53;;
77362;SDS011;66428;47.322;9.432;2023-05-16T12:16:51;6.93;;;4.82;;
77362;SDS011;66428;47.322;9.432;2023-05-16T12:19:22;6.60;;;4.82;;
77362;SDS011;66428;47.322;9.432;2023-05-16T12:21:52;7.38;;;5.65;;
77362;SDS011;66428;47.322;9.432;2023-05-16T12:24:27;8.35;;;6.28;;
77362;SDS011;66428;47.322;9.432;2023-05-16T12:26:57;6.47;;;5.18;;
77362;SDS011;66428;47.322;9.432;2023-05-16T12:29:26;7.38;;;5.03;;
77362;SDS011;66428;47.322;9.432;2023-05-16T12:31:58;6.50;;;5.30;;
77362;SDS011;66428;47.322;9.432;2023-05-16T12:34:28;6.50;;;5.00;;
77362;SDS011;66428;47.322;9.432;2023-05-16T12:36:55;7.88;;;5.78;;
77362;SDS011;66428;47.322;9.432;2023-05-16T12:39:24;5.88;;;4.90;;
77362;SDS011;66428;47.322;9.432;2023-05-16T12:41:55;5.82;;;4.43;;
77362;SDS011;66428;47.322;9.432;2023-05-16T12:44:24;5.75;;;4.25;;
77362;SDS011;66428;47.322;9.432;2023-05-16T12:46:57;7.40;;;4.43;;
77362;SDS011;66428;47.322;9.432;2023-05-16T12:49:27;6.28;;;4.93;;
77362;SDS011;66428;47.322;9.432;2023-05-16T12:51:56;5.75;;;4.97;;
77362;SDS011;66428;47.322;9.432;2023-05-16T12:54:31;6.53;;;5.03;;
77362;SDS011;66428;47.322;9.432;2023-05-16T12:56:57;8.02;;;5.22;;
77362;SDS011;66428;47.322;9.432;2023-05-16T12:59:29;6.03;;;4.80;;
77362;SDS011;66428;47.322;9.432;2023-05-16T13:02:01;8.60;;;5.97;;
77362;SDS011;66428;47.322;9.432;2023-05-16T13:04:30;6.72;;;5.07;;
77362;SDS011;66428;47.322;9.432;2023-05-16T13:06:56;9.35;;;6.63;;
77362;SDS011;66428;47.322;9.432;2023-05-16T13:09:27;7.90;;;6.13;;
77362;SDS011;66428;47.322;9.432;2023-05-16T13:12:01;8.70;;;6.72;;
77362;SDS011;66428;47.322;9.432;2023-05-16T13:14:29;10.05;;;6.43;;
77362;SDS011;66428;47.322;9.432;2023-05-16T13:16:58;8.32;;;6.50;;
77362;SDS011;66428;47.322;9.432;2023-05-16T13:19:25;8.57;;;6.50;;
77362;SDS011;66428;47.322;9.432;2023-05-16T13:21:54;9.20;;;6.45;;
77362;SDS011;66428;47.322;9.432;2023-05-16T13:24:23;9.05;;;6.43;;
77362;SDS011;66428;47.322;9.432;2023-05-16T13:26:52;10.02;;;7.38;;
77362;SDS011;66428;47.322;9.432;2023-05-16T13:29:21;6.82;;;5.75;;
77362;SDS011;66428;47.322;9.432;2023-05-16T13:31:50;8.45;;;6.25;;
77362;SDS011;66428;47.322;9.432;2023-05-16T13:34:22;7.75;;;6.15;;
77362;SDS011;66428;47.322;9.432;2023-05-16T13:36:50;6.97;;;5.35;;
77362;SDS011;66428;47.322;9.432;2023-05-16T13:39:22;7.80;;;6.20;;
77362;SDS011;66428;47.322;9.432;2023-05-16T13:41:51;7.45;;;5.70;;
77362;SDS011;66428;47.322;9.432;2023-05-16T13:44:18;7.85;;;5.47;;
77362;SDS011;66428;47.322;9.432;2023-05-16T13:46:45;6.47;;;5.13;;
77362;SDS011;66428;47.322;9.432;2023-05-16T13:49:14;7.72;;;6.18;;
77362;SDS011;66428;47.322;9.432;2023-05-16T13:51:40;6.95;;;5.45;;
77362;SDS011;66428;47.322;9.432;2023-05-16T13:54:07;7.60;;;5.53;;
77362;SDS011;66428;47.322;9.432;2023-05-16T13:56:33;6.93;;;5.63;;
77362;SDS011;66428;47.322;9.432;2023-05-16T13:59:05;6.70;;;4.85;;
77362;SDS011;66428;47.322;9.432;2023-05-16T14:01:33;6.50;;;4.93;;
77362;SDS011;66428;47.322;9.432;2023-05-16T14:03:59;5.70;;;4.45;;
77362;SDS011;66428;47.322;9.432;2023-05-16T14:06:26;6.63;;;4.50;;
77362;SDS011;66428;47.322;9.432;2023-05-16T14:08:55;6.28;;;4.70;;
77362;SDS011;66428;47.322;9.432;2023-05-16T14:11:26;8.90;;;5.10;;
77362;SDS011;66428;47.322;9.432;2023-05-16T14:13:55;5.00;;;3.63;;
77362;SDS011;66428;47.322;9.432;2023-05-16T14:16:26;5.25;;;3.90;;
77362;SDS011;66428;47.322;9.432;2023-05-16T14:18:56;5.95;;;4.63;;
77362;SDS011;66428;47.322;9.432;2023-05-16T14:21:23;5.72;;;4.40;;
77362;SDS011;66428;47.322;9.432;2023-05-16T14:23:51;6.10;;;4.03;;
77362;SDS011;66428;47.322;9.432;2023-05-16T14:26:18;5.93;;;4.38;;
77362;SDS011;66428;47.322;9.432;2023-05-16T14:28:50;6.43;;;4.63;;
77362;SDS011;66428;47.322;9.432;2023-05-16T14:31:17;6.45;;;4.47;;
77362;SDS011;66428;47.322;9.432;2023-05-16T14:33:47;5.75;;;4.35;;
77362;SDS011;66428;47.322;9.432;2023-05-16T14:36:16;4.43;;;3.60;;
77362;SDS011;66428;47.322;9.432;2023-05-16T14:38:45;5.05;;;3.70;;
77362;SDS011;66428;47.322;9.432;2023-05-16T14:41:14;4.45;;;3.53;;
77362;SDS011;66428;47.322;9.432;2023-05-16T14:43:45;4.38;;;3.40;;
77362;SDS011;66428;47.322;9.432;2023-05-16T14:46:12;5.35;;;4.10;;
77362;SDS011;66428;47.322;9.432;2023-05-16T14:48:39;6.55;;;5.13;;
77362;SDS011;66428;47.322;9.432;2023-05-16T14:51:08;6.68;;;4.78;;
77362;SDS011;66428;47.322;9.432;2023-05-16T14:53:35;5.53;;;4.65;;
77362;SDS011;66428;47.322;9.432;2023-05-16T14:56:02;5.57;;;4.57;;
77362;SDS011;66428;47.322;9.432;2023-05-16T14:58:31;7.80;;;4.47;;
77362;SDS011;66428;47.322;9.432;2023-05-16T15:01:01;6.22;;;3.95;;
77362;SDS011;66428;47.322;9.432;2023-05-16T15:03:30;4.50;;;3.83;;
77362;SDS011;66428;47.322;9.432;2023-05-16T15:08:48;5.90;;;4.13;;
77362;SDS011;66428;47.322;9.432;2023-05-16T15:11:19;7.03;;;4.70;;
77362;SDS011;66428;47.322;9.432;2023-05-16T15:13:47;5.82;;;5.07;;
77362;SDS011;66428;47.322;9.432;2023-05-16T15:16:16;5.70;;;4.20;;
77362;SDS011;66428;47.322;9.432;2023-05-16T15:18:42;7.00;;;4.75;;